Airfield :
LOGIN :

Register | Disclaimer

   EN    FR    IT 

 










Legend :    VFR   Marginal VFR   IFR   Intensive IFR   Very Intensive IFR
Visi :
Ceiling :
>= 8 km
>= 3000ft
5 to 8 km
1000 to 3000 ft
1500m to 5 km
500 to 1000 ft
800 to 1500m
200 to 500 ft
< 800m
< 200 ft
Symbols :   Thunderstorms  Fog  Heavy snow  Heavy precipitations  Wind > 20 kt
SIGMETs :     Misc.  Thunderstorms  Icing  Turbulence  Mountain Waves  Volcanic Ashes






- Airport Elevation : 359 ft
- IATA code : BVA


LFOB - Beauvais

CURRENT METAR :
  • 130900Z AUTO VRB03KT 9999 FEW018/// BKN094/// ///CB 17/12 Q1015 BECMG SCT020

EXPIRED METARs :
  • 130830Z AUTO VRB02KT 9999 FEW012/// BKN017/// BKN034/// ///CB 16/13 Q1015 BECMG SCT020
  • 130800Z AUTO VRB02KT 9999 SCT010/// BKN019/// BKN047/// //////TCU 16/14 Q1015 BECMG SCT020
  • 130730Z AUTO VRB03KT 9999 BKN009 BKN094 15/14 Q1015 BECMG SCT020
  • 130700Z AUTO 28004KT 250V310 9999 BKN008 BKN058 OVC100 14/13 Q1015 BECMG SCT020
  • 130630Z AUTO VRB02KT 9999 FEW006 BKN058 BKN100 14/13 Q1015 NOSIG
  • 130600Z AUTO VRB03KT 9999 FEW002 BKN058 BKN068 13/13 Q1015 NOSIG
  • 130530Z AUTO VRB02KT 9999 FEW002/// BKN060/// BKN070/// ///CB 13/13 Q1015 BECMG SCT020
  • 130500Z AUTO 31003KT 7000 FEW001/// BKN066/// BKN078/// //////TCU 13/13 Q1015 TEMPO 3000 BR BECMG SCT020
  • 130430Z AUTO 25002KT 6000 ///TCU 12/12 Q1015 TEMPO 3000 BR BECMG SCT020

TAF TAF LFOB
Valid from the 13 at 06:00 until the 14 at 06:00 UTC


130500Z 1306/1406 VRB03KT 9999 SCT020
PROB40
TEMPO 1311/1319 4000 SHRA BKN030TCU
PROB40
TEMPO 1323/1406 4000 BR OVC002
PROB30
TEMPO 1400/1406 0500 FG VV///
ATIS : +33 3 44 11 49 28



MET'MAP, your aeronautical weather chart ! - Copyright ORBIFLY December 2007 - Disclaimer

ORBIFLY MET'MAP TEAM :

Programming & Development : Alexandra Zaïnal
Original concept : Baudouin d'Aumeries
Technical & hardware support : Manuel Goepfert
Assistance : Marc-Olivier Méhu




SOURCES & CREDITS :

   NOAA